Time;durP1;ratioP1;P1;durP2;ratioP2;P2;SDS_P1;SDS_P2;PMS_P1;PMS_P2;Temp;Humidity;BMP_temperature;BMP_pressure;BME280_temperature;BME280_humidity;BME280_pressure;Samples;Min_cycle;Max_cycle;Signal;HPM_P1;HPM_P2
2022/11/11 01:23:58;;;;;;;2.00;1.40;;;16.20;70.90;;;;;;5058193;28;20075;-70
2022/11/11 01:26:25;;;;;;;2.38;1.63;;;16.20;70.90;;;;;;5072374;28;20056;-70
2022/11/11 01:28:52;;;;;;;2.78;1.73;;;16.20;71.00;;;;;;5073913;28;20136;-71
2022/11/11 01:31:20;;;;;;;3.97;1.90;;;16.20;71.00;;;;;;5073853;28;20059;-71
2022/11/11 01:33:46;;;;;;;3.00;1.30;;;16.20;71.00;;;;;;5073865;28;20053;-72
2022/11/11 01:36:14;;;;;;;2.55;1.73;;;16.20;71.00;;;;;;5068890;28;20052;-71
2022/11/11 01:38:42;;;;;;;3.08;1.52;;;16.10;71.00;;;;;;5054267;28;20052;-71
2022/11/11 01:43:57;;;;;;;2.47;1.50;;;16.20;71.00;;;;;;5054217;28;20057;-71
2022/11/11 01:46:30;;;;;;;2.90;1.83;;;16.20;71.00;;;;;;5059908;28;20486;-71
2022/11/11 01:51:45;;;;;;;4.55;1.60;;;16.10;71.00;;;;;;5074351;28;20107;-70
2022/11/11 01:54:14;;;;;;;3.20;1.63;;;16.10;71.00;;;;;;5073677;28;20040;-71
2022/11/11 01:56:42;;;;;;;2.95;1.77;;;16.10;71.00;;;;;;5065223;28;20052;-71
2022/11/11 01:59:11;;;;;;;3.08;1.60;;;16.10;71.00;;;;;;5054835;28;20059;-71
2022/11/11 02:01:37;;;;;;;2.80;1.80;;;16.10;71.00;;;;;;5054202;28;20048;-71
2022/11/11 02:06:49;;;;;;;2.53;1.87;;;16.10;71.00;;;;;;5062344;28;20041;-71
2022/11/11 02:09:16;;;;;;;3.35;1.70;;;16.10;71.00;;;;;;5073220;28;20061;-71
2022/11/11 02:14:38;;;;;;;2.97;2.00;;;16.10;71.00;;;;;;5073234;28;20049;-71
2022/11/11 02:17:06;;;;;;;2.55;1.70;;;16.00;71.00;;;;;;5061906;28;20067;-71
2022/11/11 02:19:35;;;;;;;2.03;1.48;;;16.10;71.00;;;;;;5054456;28;20049;-71
2022/11/11 02:22:02;;;;;;;2.53;1.60;;;16.00;71.00;;;;;;5052647;28;20057;-71
2022/11/11 02:24:30;;;;;;;2.50;1.50;;;16.10;71.00;;;;;;5054059;28;20053;-71
2022/11/11 02:26:57;;;;;;;2.42;1.60;;;16.10;71.00;;;;;;5062500;28;20056;-71
2022/11/11 02:29:24;;;;;;;4.32;1.90;;;16.10;71.00;;;;;;5073877;28;20044;-71
2022/11/11 02:31:50;;;;;;;1.85;1.60;;;16.10;71.00;;;;;;5073857;28;20052;-71
2022/11/11 02:34:17;;;;;;;2.15;1.67;;;16.00;71.00;;;;;;5074098;28;20055;-71
2022/11/11 02:36:44;;;;;;;2.97;1.83;;;16.10;71.00;;;;;;5068890;28;20557;-71
2022/11/11 02:39:10;;;;;;;3.88;1.98;;;16.10;71.00;;;;;;5052621;28;20057;-71
2022/11/11 02:41:57;;;;;;;2.45;1.67;;;16.10;71.00;;;;;;5053658;28;20055;-71
2022/11/11 02:44:23;;;;;;;2.53;1.67;;;16.10;71.00;;;;;;5054117;28;20059;-71
2022/11/11 02:46:50;;;;;;;2.17;1.63;;;16.00;71.50;;;;;;5052794;28;20514;-71
2022/11/11 02:49:17;;;;;;;2.33;1.60;;;16.00;71.00;;;;;;5052436;28;20155;-71
2022/11/11 02:51:43;;;;;;;1.95;1.60;;;16.00;71.00;;;;;;5052285;28;20067;-71
2022/11/11 02:54:10;;;;;;;2.97;1.73;;;16.00;71.00;;;;;;5053707;28;20407;-71
2022/11/11 02:59:22;;;;;;;1.95;1.60;;;16.00;71.00;;;;;;5073588;28;20044;-71
2022/11/11 03:01:49;;;;;;;2.08;1.60;;;16.00;71.00;;;;;;5072034;28;20052;-71
2022/11/11 03:04:16;;;;;;;2.60;1.73;;;16.00;71.00;;;;;;5073781;28;20127;-71
2022/11/11 03:06:42;;;;;;;2.83;1.88;;;16.00;71.00;;;;;;5071624;28;20048;-71
2022/11/11 03:09:09;;;;;;;2.63;1.90;;;16.00;71.00;;;;;;5072190;28;20079;-70
2022/11/11 03:11:37;;;;;;;2.50;1.80;;;16.00;71.00;;;;;;5072596;28;20064;-71
2022/11/11 03:14:05;;;;;;;2.30;1.83;;;16.00;71.00;;;;;;5072118;28;20064;-71
2022/11/11 03:19:16;;;;;;;2.55;1.73;;;16.00;71.00;;;;;;5053147;28;20517;-71
2022/11/11 03:21:42;;;;;;;2.90;1.88;;;16.00;71.00;;;;;;5052783;28;20049;-71
2022/11/11 03:24:09;;;;;;;2.95;1.88;;;16.00;71.00;;;;;;5052136;28;20128;-71
2022/11/11 03:26:36;;;;;;;2.33;1.80;;;15.90;70.90;;;;;;5058447;28;20074;-71
2022/11/11 03:29:03;;;;;;;2.38;1.70;;;16.00;71.00;;;;;;5071845;28;20055;-71
2022/11/11 03:31:31;;;;;;;2.83;1.85;;;16.00;71.00;;;;;;5072706;28;20080;-71
2022/11/11 03:34:16;;;;;;;2.55;1.70;;;16.00;71.00;;;;;;5072852;28;20054;-71
2022/11/11 03:39:28;;;;;;;3.93;1.90;;;16.00;71.00;;;;;;5051562;28;20049;-70
2022/11/11 03:41:55;;;;;;;2.83;1.92;;;16.00;71.00;;;;;;5051186;28;20308;-71
2022/11/11 03:44:22;;;;;;;3.33;1.90;;;16.00;71.00;;;;;;5051788;28;20057;-71
2022/11/11 03:46:50;;;;;;;2.60;2.05;;;16.00;71.00;;;;;;5059471;28;20486;-71
2022/11/11 03:49:17;;;;;;;2.35;1.95;;;16.00;71.00;;;;;;5071334;28;20052;-71
2022/11/11 03:51:43;;;;;;;3.55;2.05;;;16.00;71.00;;;;;;5071085;28;20062;-71
2022/11/11 03:54:10;;;;;;;2.95;2.20;;;16.00;71.00;;;;;;5071262;28;20401;-72
2022/11/11 03:56:37;;;;;;;2.70;2.15;;;16.00;71.00;;;;;;5065102;28;20049;-71
2022/11/11 03:59:03;;;;;;;2.55;2.03;;;16.00;71.00;;;;;;5051393;28;20478;-71
2022/11/11 04:18:11;;;;;;;3.08;2.13;;;15.90;71.00;;;;;;5052310;28;20053;-71
2022/11/11 04:23:23;;;;;;;;;;;15.90;71.00;;;;;;5052648;28;20503;-71
2022/11/11 04:25:49;;;;;;;3.30;2.00;;;15.90;70.90;;;;;;5050822;28;20003;-71
2022/11/11 04:31:00;;;;;;;2.63;2.03;;;15.90;71.00;;;;;;5070515;28;20048;-72
2022/11/11 04:33:25;;;;;;;2.78;2.03;;;15.90;71.10;;;;;;5070431;28;20052;-71
2022/11/11 04:35:54;;;;;;;3.78;2.20;;;15.90;71.00;;;;;;5072030;28;20400;-71
2022/11/11 04:41:05;;;;;;;2.95;2.20;;;15.90;71.00;;;;;;5050468;28;20056;-71
2022/11/11 04:45:26;;;;;;;2.72;2.20;;;15.90;71.00;;;;;;5050641;28;20069;-72
2022/11/11 04:46:17;;;;;;;2.72;2.20;;;15.90;71.00;;;;;;5053115;28;20415;-71
2022/11/11 04:48:44;;;;;;;3.35;2.05;;;15.90;71.10;;;;;;5061427;28;20055;-71
2022/11/11 04:51:12;;;;;;;3.33;2.20;;;15.90;71.00;;;;;;5071173;28;20055;-71
2022/11/11 04:53:39;;;;;;;3.20;2.20;;;15.90;71.00;;;;;;5070856;28;20048;-71
2022/11/11 04:59:14;;;;;;;5.85;2.25;;;15.90;71.00;;;;;;5050732;28;20135;-71
2022/11/11 05:04:21;;;;;;;3.10;2.22;;;15.90;71.10;;;;;;5050621;28;20044;-71
2022/11/11 05:09:34;;;;;;;;;;;15.90;71.00;;;;;;5071213;28;20139;-71
2022/11/11 05:12:00;;;;;;;2.55;1.95;;;15.80;70.90;;;;;;5071265;28;20011;-71
2022/11/11 05:22:41;;;;;;;3.00;2.10;;;15.80;71.10;;;;;;5071607;28;20131;-71
2022/11/11 05:25:25;;;;;;;4.22;2.47;;;15.80;71.10;;;;;;5070442;28;20056;-71
2022/11/11 05:27:53;;;;;;;4.63;2.85;;;15.80;71.00;;;;;;5056054;28;20395;-71
2022/11/11 05:30:19;;;;;;;3.22;2.33;;;15.80;71.10;;;;;;5050908;28;20049;-71
2022/11/11 05:32:46;;;;;;;3.38;2.53;;;15.80;71.00;;;;;;5051226;28;20063;-71
2022/11/11 05:35:13;;;;;;;4.15;2.50;;;15.80;71.00;;;;;;5051349;28;20055;-71
2022/11/11 05:37:41;;;;;;;4.78;2.40;;;15.90;71.00;;;;;;5063871;28;20051;-71
2022/11/11 05:40:09;;;;;;;3.45;2.38;;;15.80;71.00;;;;;;5070603;28;20057;-71
2022/11/11 05:42:35;;;;;;;3.00;2.22;;;15.90;71.00;;;;;;5070371;28;20191;-71
2022/11/11 05:45:02;;;;;;;3.17;2.47;;;15.80;71.00;;;;;;5071069;28;20051;-71
2022/11/11 05:47:29;;;;;;;3.40;2.53;;;15.80;71.00;;;;;;5060304;28;20107;-71
2022/11/11 05:49:56;;;;;;;3.03;2.50;;;15.80;71.00;;;;;;5050774;28;20065;-70
2022/11/11 05:52:22;;;;;;;4.10;2.92;;;15.80;71.00;;;;;;5050810;28;20573;-71
2022/11/11 05:54:50;;;;;;;4.22;2.40;;;15.80;70.90;;;;;;5049710;28;20049;-71
2022/11/11 05:57:17;;;;;;;3.03;2.50;;;15.80;70.90;;;;;;5050555;28;20053;-71
2022/11/11 05:59:44;;;;;;;2.85;2.50;;;15.80;71.00;;;;;;5052189;28;20434;-71
2022/11/11 06:02:11;;;;;;;4.82;2.83;;;15.80;71.00;;;;;;5054072;28;20124;-71
2022/11/11 06:04:37;;;;;;;3.72;2.85;;;15.80;71.00;;;;;;5053600;28;20057;-71
2022/11/11 06:07:04;;;;;;;3.80;2.50;;;15.80;71.00;;;;;;5060782;28;20459;-71
2022/11/11 06:09:31;;;;;;;3.20;2.38;;;15.80;71.00;;;;;;5073641;28;20060;-71
2022/11/11 06:11:59;;;;;;;4.13;2.65;;;15.80;70.90;;;;;;5072728;28;20131;-71
2022/11/11 06:14:26;;;;;;;4.38;2.63;;;15.80;70.90;;;;;;5073135;28;20052;-71
2022/11/11 06:16:52;;;;;;;3.90;2.72;;;15.80;70.90;;;;;;5068370;28;20398;-72
2022/11/11 06:19:19;;;;;;;5.00;2.40;;;15.80;71.00;;;;;;5053558;28;20135;-71
2022/11/11 06:21:57;;;;;;;3.85;2.72;;;15.80;70.90;;;;;;5052651;28;20090;-71
2022/11/11 06:24:24;;;;;;;3.70;2.75;;;15.80;70.90;;;;;;5053259;28;20052;-71
2022/11/11 06:26:51;;;;;;;3.53;2.50;;;15.80;71.00;;;;;;5054601;28;20067;-71
2022/11/11 06:29:19;;;;;;;3.25;2.55;;;15.80;70.90;;;;;;5053333;28;20079;-71
2022/11/11 06:31:46;;;;;;;2.83;2.35;;;15.80;70.90;;;;;;5052179;28;20076;-71
2022/11/11 06:34:12;;;;;;;5.15;2.42;;;15.80;70.90;;;;;;5052596;28;20059;-71
2022/11/11 06:36:39;;;;;;;3.38;2.45;;;15.80;70.90;;;;;;5055787;28;20175;-71
2022/11/11 06:39:06;;;;;;;3.30;2.50;;;15.80;70.90;;;;;;5073426;28;20543;-71
2022/11/11 06:41:32;;;;;;;3.75;2.35;;;15.80;70.90;;;;;;5072390;28;20062;-71
2022/11/11 06:43:59;;;;;;;3.67;2.58;;;15.80;70.90;;;;;;5072829;28;20057;-72
2022/11/11 06:46:27;;;;;;;3.97;2.70;;;15.80;70.90;;;;;;5071743;28;20428;-71
2022/11/11 06:48:54;;;;;;;3.28;2.50;;;15.80;70.90;;;;;;5052955;28;20055;-71
2022/11/11 06:51:20;;;;;;;5.18;2.70;;;15.80;70.90;;;;;;5063311;28;20053;-71
2022/11/11 06:53:48;;;;;;;3.05;2.35;;;15.80;70.90;;;;;;5072439;28;20063;-71
2022/11/11 06:56:15;;;;;;;3.70;2.55;;;15.80;70.90;;;;;;5072829;28;20177;-71
2022/11/11 06:58:41;;;;;;;4.63;2.50;;;15.80;70.90;;;;;;5071721;28;20057;-71
2022/11/11 07:01:08;;;;;;;2.85;2.50;;;15.80;70.90;;;;;;5073007;28;20041;-71
2022/11/11 07:03:36;;;;;;;4.05;2.50;;;15.80;70.90;;;;;;5065132;28;20049;-71
2022/11/11 07:06:04;;;;;;;3.13;2.67;;;15.80;70.90;;;;;;5058328;28;20045;-71
2022/11/11 07:08:30;;;;;;;3.53;2.70;;;15.80;70.90;;;;;;5052713;28;20091;-71
2022/11/11 07:10:57;;;;;;;4.18;2.67;;;15.80;70.90;;;;;;5051690;28;20069;-70
2022/11/11 07:13:24;;;;;;;3.78;2.38;;;15.80;70.90;;;;;;5052289;28;20656;-70
2022/11/11 07:15:51;;;;;;;3.92;2.70;;;15.80;70.90;;;;;;5052290;28;20053;-70
2022/11/11 07:18:17;;;;;;;3.33;2.60;;;15.80;70.90;;;;;;5067336;28;20131;-71
2022/11/11 07:20:45;;;;;;;3.15;2.50;;;15.80;70.90;;;;;;5071628;28;20417;-71
2022/11/11 07:23:12;;;;;;;3.95;2.70;;;15.80;70.90;;;;;;5072717;28;20055;-71
2022/11/11 07:25:39;;;;;;;3.22;2.38;;;15.80;70.90;;;;;;5073041;28;20050;-72
2022/11/11 07:28:06;;;;;;;3.20;2.78;;;15.80;70.90;;;;;;5059415;28;20056;-72
2022/11/11 07:30:32;;;;;;;4.35;2.78;;;15.80;70.90;;;;;;5051121;28;20091;-72
2022/11/11 07:32:59;;;;;;;2.58;2.28;;;15.80;70.90;;;;;;5052594;28;20140;-72
2022/11/11 07:35:26;;;;;;;3.90;2.88;;;15.80;70.90;;;;;;5051741;28;20061;-72
2022/11/11 07:37:54;;;;;;;6.57;3.20;;;15.80;70.90;;;;;;5051657;28;20314;-72
2022/11/11 07:40:21;;;;;;;3.50;2.70;;;15.80;70.90;;;;;;5051140;28;20056;-71
2022/11/11 07:42:47;;;;;;;4.85;3.40;;;15.80;70.80;;;;;;5063520;28;20520;-71
2022/11/11 07:45:15;;;;;;;6.57;2.80;;;15.90;70.90;;;;;;5054540;28;20135;-71
2022/11/11 07:47:44;;;;;;;4.15;2.70;;;15.90;70.80;;;;;;5051975;28;20541;-71
2022/11/11 07:50:11;;;;;;;4.90;2.60;;;15.90;70.70;;;;;;5051108;28;20139;-71
2022/11/11 07:52:38;;;;;;;6.43;2.63;;;16.00;70.70;;;;;;5052547;28;20071;-71
2022/11/11 07:55:07;;;;;;;6.03;2.83;;;16.00;70.60;;;;;;5051281;28;20179;-70
2022/11/11 07:57:33;;;;;;;4.28;2.88;;;16.00;70.60;;;;;;5059979;28;20088;-71
2022/11/11 08:00:00;;;;;;;5.82;2.58;;;16.10;70.50;;;;;;5070917;28;20197;-71
2022/11/11 08:02:27;;;;;;;4.35;2.58;;;16.10;70.50;;;;;;5071512;28;20600;-71
2022/11/11 08:04:53;;;;;;;4.28;2.55;;;16.10;70.40;;;;;;5071165;28;20051;-71
2022/11/11 08:07:20;;;;;;;3.20;2.28;;;16.20;70.30;;;;;;5071139;28;20051;-71
2022/11/11 08:09:47;;;;;;;3.63;2.40;;;16.20;70.30;;;;;;5071137;28;20490;-71
2022/11/11 08:14:59;;;;;;;4.28;2.58;;;16.30;70.20;;;;;;5058420;28;20082;-70
2022/11/11 08:17:26;;;;;;;2.78;2.45;;;16.30;70.20;;;;;;5062399;28;20494;-70
2022/11/11 08:19:52;;;;;;;3.70;2.55;;;16.40;70.10;;;;;;5060732;28;20059;-71
2022/11/11 08:22:19;;;;;;;3.92;2.28;;;16.40;70.00;;;;;;5068761;28;20131;-71
2022/11/11 08:24:46;;;;;;;3.20;2.20;;;16.40;70.00;;;;;;5068902;28;20120;-72
2022/11/11 08:27:13;;;;;;;3.58;2.30;;;16.40;69.90;;;;;;5052848;28;20071;-72
2022/11/11 08:29:41;;;;;;;3.22;2.38;;;16.50;69.90;;;;;;5053051;28;20045;-70
2022/11/11 08:32:08;;;;;;;3.40;2.70;;;16.50;69.90;;;;;;5050811;28;20060;-71
2022/11/11 08:34:34;;;;;;;3.85;2.55;;;16.50;69.90;;;;;;5050413;28;20059;-71
2022/11/11 08:37:01;;;;;;;3.63;2.33;;;16.50;69.80;;;;;;5056350;28;20056;-69
2022/11/11 08:39:28;;;;;;;4.38;2.78;;;16.60;69.80;;;;;;5050967;28;20060;-70
2022/11/11 08:41:54;;;;;;;6.10;3.08;;;16.60;69.80;;;;;;5050247;28;20056;-71
2022/11/11 08:44:21;;;;;;;5.20;2.63;;;16.60;69.70;;;;;;5051627;28;20071;-70
2022/11/11 08:46:49;;;;;;;3.80;2.67;;;16.60;69.70;;;;;;5050702;28;20140;-70
2022/11/11 08:49:16;;;;;;;6.70;2.90;;;16.60;69.60;;;;;;5050754;28;20421;-70
2022/11/11 08:51:42;;;;;;;5.13;2.75;;;16.70;69.70;;;;;;5049804;28;20379;-70
2022/11/11 08:54:09;;;;;;;7.05;3.28;;;16.70;69.60;;;;;;5051843;28;20055;-70
2022/11/11 08:56:36;;;;;;;10.57;3.10;;;16.70;69.60;;;;;;5050299;28;20072;-70
2022/11/11 08:59:03;;;;;;;6.30;3.08;;;16.70;70.10;;;;;;5050949;28;20384;-70
2022/11/11 09:01:30;;;;;;;8.27;3.45;;;16.70;69.60;;;;;;5050084;28;20049;-70
2022/11/11 09:03:58;;;;;;;7.15;3.03;;;16.70;69.60;;;;;;5050570;28;20053;-70
2022/11/11 09:06:24;;;;;;;7.60;3.28;;;16.70;69.70;;;;;;5050092;28;20055;-70
2022/11/11 09:08:51;;;;;;;6.93;3.13;;;16.70;69.70;;;;;;5051890;28;20139;-69
2022/11/11 09:11:18;;;;;;;7.72;3.25;;;16.70;69.70;;;;;;5051382;28;20383;-71
2022/11/11 09:13:46;;;;;;;8.50;3.60;;;16.70;69.80;;;;;;5050818;28;20099;-70
2022/11/11 09:16:12;;;;;;;8.40;3.47;;;16.70;69.80;;;;;;5049691;28;20052;-70
2022/11/11 09:18:39;;;;;;;8.88;3.53;;;16.70;69.80;;;;;;5050347;28;20060;-71
2022/11/11 09:21:07;;;;;;;8.75;4.32;;;16.70;69.80;;;;;;5051063;28;20083;-71
2022/11/11 09:23:34;;;;;;;8.93;2.85;;;16.70;69.80;;;;;;5051635;28;20084;-70
2022/11/11 09:26:02;;;;;;;8.20;3.40;;;16.60;69.80;;;;;;5050070;28;20045;-70
2022/11/11 09:28:30;;;;;;;7.43;3.03;;;16.60;69.80;;;;;;5051617;28;20053;-70
2022/11/11 09:30:58;;;;;;;4.82;2.70;;;16.60;69.80;;;;;;5049817;28;20057;-70
2022/11/11 09:33:25;;;;;;;6.20;2.78;;;16.60;69.80;;;;;;5050508;28;20087;-70
2022/11/11 09:35:52;;;;;;;5.78;2.90;;;16.60;69.80;;;;;;5054096;28;20056;-69
2022/11/11 09:38:22;;;;;;;7.07;3.05;;;16.60;69.80;;;;;;5054216;28;20554;-70
2022/11/11 09:40:53;;;;;;;6.40;3.28;;;16.60;69.80;;;;;;5054561;28;20063;-70
2022/11/11 09:43:28;;;;;;;6.28;2.80;;;16.60;69.80;;;;;;5054179;28;20057;-70
2022/11/11 09:46:01;;;;;;;4.82;2.72;;;16.60;69.80;;;;;;5054894;28;20048;-71
2022/11/11 09:48:37;;;;;;;5.93;3.40;;;16.60;69.80;;;;;;5054269;28;20136;-71
2022/11/11 09:51:04;;;;;;;6.38;2.85;;;16.60;69.80;;;;;;5053163;28;20056;-71
2022/11/11 09:53:33;;;;;;;5.63;3.13;;;16.60;71.30;;;;;;5053341;28;20080;-70
2022/11/11 09:56:01;;;;;;;4.68;2.85;;;16.50;69.80;;;;;;5053393;28;20054;-70
2022/11/11 09:58:31;;;;;;;6.10;3.10;;;16.60;69.80;;;;;;5053898;28;20086;-70
2022/11/11 10:00:59;;;;;;;7.32;3.25;;;16.50;69.80;;;;;;5052629;28;20065;-70
2022/11/11 10:03:29;;;;;;;5.53;2.85;;;16.50;69.70;;;;;;5053508;28;20052;-70
2022/11/11 10:05:57;;;;;;;5.43;2.72;;;16.50;69.80;;;;;;5054088;28;20055;-70
2022/11/11 10:08:26;;;;;;;6.13;2.72;;;16.50;69.80;;;;;;5053871;28;20053;-70
2022/11/11 10:10:54;;;;;;;6.93;2.78;;;16.50;69.80;;;;;;5052599;28;20063;-71
2022/11/11 10:13:23;;;;;;;5.25;2.90;;;16.50;69.80;;;;;;5054534;28;20055;-69
2022/11/11 10:15:57;;;;;;;5.50;2.92;;;16.50;69.80;;;;;;5054708;28;20071;-71
2022/11/11 10:18:30;;;;;;;5.40;3.03;;;16.50;69.80;;;;;;5054351;28;20055;-70
2022/11/11 10:20:56;;;;;;;6.90;2.97;;;16.50;69.80;;;;;;5054180;28;20482;-70
2022/11/11 10:23:26;;;;;;;6.32;3.05;;;16.50;69.90;;;;;;5058525;28;20075;-71
2022/11/11 10:25:55;;;;;;;5.15;2.78;;;16.50;69.80;;;;;;5074476;28;20054;-70
2022/11/11 10:28:26;;;;;;;5.85;3.38;;;16.50;69.80;;;;;;5073180;28;20060;-71
2022/11/11 10:30:53;;;;;;;4.82;3.05;;;16.50;69.80;;;;;;5072830;28;20066;-70
2022/11/11 10:33:22;;;;;;;5.15;3.00;;;16.50;69.80;;;;;;5074142;28;20595;-70
2022/11/11 10:35:49;;;;;;;8.98;3.08;;;16.50;69.80;;;;;;5072920;28;20053;-70
2022/11/11 10:38:21;;;;;;;7.60;2.95;;;16.50;69.80;;;;;;5074603;28;20387;-70
2022/11/11 10:40:49;;;;;;;5.97;2.80;;;16.50;69.80;;;;;;5073599;28;20040;-70
2022/11/11 10:43:21;;;;;;;4.05;2.50;;;16.50;69.80;;;;;;5073734;28;20044;-71
2022/11/11 10:45:55;;;;;;;7.22;2.90;;;16.50;69.80;;;;;;5072814;28;20561;-71
2022/11/11 10:48:23;;;;;;;4.25;2.70;;;16.50;69.80;;;;;;5073023;28;20465;-70
2022/11/11 10:50:51;;;;;;;4.15;2.63;;;16.50;69.90;;;;;;5072205;28;20432;-70
2022/11/11 10:53:21;;;;;;;5.47;3.20;;;16.50;69.90;;;;;;5072455;28;20054;-70
2022/11/11 10:55:50;;;;;;;6.63;3.17;;;16.50;69.90;;;;;;5072451;28;20052;-70
2022/11/11 10:58:21;;;;;;;4.60;2.80;;;16.50;69.90;;;;;;5072940;28;20060;-70
2022/11/11 11:00:48;;;;;;;4.70;2.83;;;16.50;69.90;;;;;;5071903;28;20052;-71
2022/11/11 11:03:19;;;;;;;4.40;2.83;;;16.40;69.80;;;;;;5072518;28;20525;-70
2022/11/11 11:05:47;;;;;;;3.92;2.90;;;16.50;69.90;;;;;;5072219;28;20045;-70
2022/11/11 11:08:15;;;;;;;4.47;2.60;;;16.40;69.80;;;;;;5072554;28;20144;-70
2022/11/11 11:10:43;;;;;;;4.65;2.88;;;16.40;69.80;;;;;;5071458;28;20063;-71
2022/11/11 11:13:13;;;;;;;4.15;2.70;;;16.40;69.80;;;;;;5072615;28;20409;-70
2022/11/11 11:15:47;;;;;;;4.72;2.80;;;16.40;69.80;;;;;;5072422;28;20401;-70
2022/11/11 11:18:15;;;;;;;4.40;2.80;;;16.40;69.80;;;;;;5073753;28;20105;-69
2022/11/11 11:20:54;;;;;;;4.70;3.08;;;16.40;69.90;;;;;;5071268;28;20134;-70
2022/11/11 11:23:35;;;;;;;4.90;2.67;;;16.40;69.90;;;;;;5073340;28;20048;-70
2022/11/11 11:26:03;;;;;;;4.60;3.25;;;16.40;69.90;;;;;;5072226;28;20055;-70
2022/11/11 11:28:30;;;;;;;4.00;2.75;;;16.40;69.90;;;;;;5073623;28;20052;-70
2022/11/11 11:31:00;;;;;;;5.30;2.80;;;16.40;69.90;;;;;;5072797;28;20131;-70
2022/11/11 11:33:26;;;;;;;4.80;2.70;;;16.40;69.90;;;;;;5073001;28;20051;-71
2022/11/11 11:35:53;;;;;;;3.72;2.60;;;16.40;69.90;;;;;;5072805;28;20122;-70
2022/11/11 11:38:20;;;;;;;5.00;2.92;;;16.40;69.90;;;;;;5072005;28;20048;-71
2022/11/11 11:40:48;;;;;;;4.32;2.88;;;16.40;69.90;;;;;;5071388;28;20052;-70
2022/11/11 11:43:26;;;;;;;5.25;2.60;;;16.40;69.90;;;;;;5071891;28;20101;-70
2022/11/11 11:45:56;;;;;;;3.78;2.80;;;16.40;69.90;;;;;;5071298;28;20053;-71
2022/11/11 11:48:31;;;;;;;3.88;2.78;;;16.40;70.00;;;;;;5071669;28;20135;-71
2022/11/11 11:51:00;;;;;;;5.13;2.78;;;16.40;69.90;;;;;;5071115;28;20053;-71
2022/11/11 11:53:42;;;;;;;3.85;2.60;;;16.40;70.00;;;;;;5072810;28;20386;-71
2022/11/11 11:56:15;;;;;;;3.92;2.75;;;16.40;69.90;;;;;;5070659;28;20135;-71
2022/11/11 11:58:52;;;;;;;4.00;2.90;;;16.40;69.90;;;;;;5065022;28;20041;-71
2022/11/11 12:01:21;;;;;;;4.32;2.45;;;16.40;69.90;;;;;;5069767;28;20063;-71
2022/11/11 12:04:33;;;;;;;4.20;2.80;;;16.40;70.00;;;;;;5071262;28;20052;-71
2022/11/11 12:07:04;;;;;;;3.95;2.85;;;16.40;69.80;;;;;;5070581;28;20508;-71
2022/11/11 12:09:36;;;;;;;5.15;2.80;;;16.40;70.00;;;;;;5071267;28;20061;-71
2022/11/11 12:12:06;;;;;;;5.00;2.80;;;16.40;69.90;;;;;;5070504;28;20127;-70
2022/11/11 12:14:50;;;;;;;3.38;2.65;;;16.50;69.90;;;;;;5072383;28;20569;-70
2022/11/11 12:17:26;;;;;;;5.28;3.20;;;16.50;69.90;;;;;;5070727;28;20055;-70
2022/11/11 12:19:57;;;;;;;4.88;2.90;;;16.60;69.90;;;;;;5070655;28;20066;-70
2022/11/11 12:22:30;;;;;;;3.85;2.67;;;16.60;69.90;;;;;;5072212;28;20145;-70
2022/11/11 12:25:02;;;;;;;2.83;2.10;;;16.60;69.80;;;;;;5070958;28;20053;-71
2022/11/11 12:27:31;;;;;;;3.63;2.80;;;16.60;69.70;;;;;;5070871;28;20047;-69
2022/11/11 12:30:04;;;;;;;3.80;2.33;;;16.70;69.70;;;;;;5070211;28;20060;-71
2022/11/11 12:32:55;;;;;;;3.58;2.47;;;16.70;69.60;;;;;;5070586;28;20060;-71
2022/11/11 12:35:47;;;;;;;3.53;2.30;;;16.80;69.50;;;;;;5067682;28;20056;-71
2022/11/11 12:38:24;;;;;;;3.15;2.50;;;16.80;69.50;;;;;;5071456;28;20113;-71
2022/11/11 12:40:56;;;;;;;2.70;2.25;;;16.90;69.40;;;;;;5070159;28;20056;-72
2022/11/11 12:43:26;;;;;;;3.50;2.20;;;16.90;69.40;;;;;;5070877;28;20067;-71
2022/11/11 12:45:56;;;;;;;4.22;2.60;;;16.90;69.40;;;;;;5070770;28;20553;-71
2022/11/11 12:48:38;;;;;;;3.97;2.65;;;16.90;69.30;;;;;;5070765;28;20060;-72
2022/11/11 12:51:11;;;;;;;3.80;2.20;;;17.00;69.30;;;;;;5070982;28;20135;-71
2022/11/11 12:53:40;;;;;;;3.33;2.10;;;17.00;69.20;;;;;;5069642;28;20053;-72
2022/11/11 12:56:13;;;;;;;2.90;2.30;;;17.00;69.10;;;;;;5059871;28;20045;-71
2022/11/11 12:58:44;;;;;;;3.40;2.10;;;17.00;69.10;;;;;;5059083;28;20057;-71
2022/11/11 13:01:17;;;;;;;3.22;2.28;;;17.10;69.10;;;;;;5058586;28;20052;-72
2022/11/11 13:04:04;;;;;;;3.33;2.20;;;17.10;69.00;;;;;;5061040;28;20446;-72
2022/11/11 13:06:48;;;;;;;3.53;2.10;;;17.10;69.00;;;;;;5058011;28;20478;-71
2022/11/11 13:09:38;;;;;;;2.35;2.10;;;17.10;69.00;;;;;;5061449;28;20055;-71
2022/11/11 13:12:07;;;;;;;2.97;2.28;;;17.10;68.90;;;;;;5059634;28;20444;-71
2022/11/11 13:14:45;;;;;;;2.70;2.15;;;17.20;68.90;;;;;;5064664;28;20155;-71
2022/11/11 13:17:12;;;;;;;2.90;2.10;;;17.20;68.90;;;;;;5063874;28;20406;-71
2022/11/11 13:19:41;;;;;;;2.67;2.15;;;17.20;68.80;;;;;;5065048;28;20135;-71
2022/11/11 13:22:15;;;;;;;3.10;2.15;;;17.20;68.80;;;;;;5063647;28;20080;-72
2022/11/11 13:24:42;;;;;;;2.78;2.08;;;17.20;68.70;;;;;;5062499;28;20080;-71
2022/11/11 13:27:14;;;;;;;2.60;2.08;;;17.20;68.80;;;;;;5058402;28;20044;-72
2022/11/11 13:30:03;;;;;;;2.60;2.10;;;17.30;68.80;;;;;;5061142;28;20053;-71
2022/11/11 13:32:32;;;;;;;2.70;2.00;;;17.30;68.70;;;;;;5063930;28;20048;-71
2022/11/11 13:34:58;;;;;;;2.95;1.98;;;17.20;68.70;;;;;;5062783;28;20063;-71
2022/11/11 13:37:27;;;;;;;2.75;2.03;;;17.30;68.70;;;;;;5066205;28;20040;-72
2022/11/11 13:39:55;;;;;;;2.72;1.95;;;17.30;68.70;;;;;;5061558;28;20094;-71
2022/11/11 13:42:23;;;;;;;2.63;2.13;;;17.30;68.70;;;;;;5060783;28;20055;-71
2022/11/11 13:44:51;;;;;;;2.80;2.15;;;17.30;68.70;;;;;;5063340;28;20068;-71
2022/11/11 13:47:19;;;;;;;2.13;1.88;;;17.30;68.70;;;;;;5063051;28;20406;-71
2022/11/11 13:49:51;;;;;;;3.33;2.03;;;17.40;68.70;;;;;;5071408;28;20056;-72
2022/11/11 13:52:21;;;;;;;2.10;1.90;;;17.40;68.70;;;;;;5072644;28;20056;-72
2022/11/11 13:54:50;;;;;;;4.25;2.03;;;17.40;68.90;;;;;;5073485;28;20059;-72
2022/11/11 13:57:20;;;;;;;3.20;2.13;;;17.40;68.90;;;;;;5073330;28;20052;-73
2022/11/11 13:59:53;;;;;;;4.10;2.05;;;17.40;68.80;;;;;;5075257;28;20052;-73
2022/11/11 14:02:28;;;;;;;5.47;2.10;;;17.40;68.80;;;;;;5074422;28;20350;-73
2022/11/11 14:05:18;;;;;;;5.30;2.17;;;17.40;68.80;;;;;;5073812;28;20056;-73
2022/11/11 14:07:49;;;;;;;3.78;1.98;;;17.50;68.90;;;;;;5074529;28;20485;-73
2022/11/11 14:11:00;;;;;;;4.75;2.00;;;17.50;69.00;;;;;;5075726;28;20056;-73
2022/11/11 14:13:39;;;;;;;4.43;2.10;;;17.60;69.10;;;;;;5075459;28;20056;-73
2022/11/11 14:16:11;;;;;;;7.50;2.90;;;17.60;69.00;;;;;;5075204;28;20048;-73
2022/11/11 14:18:45;;;;;;;5.18;2.28;;;17.60;69.00;;;;;;5073440;28;20059;-73
2022/11/11 14:21:11;;;;;;;6.72;2.30;;;17.60;69.00;;;;;;5072022;28;20048;-71
2022/11/11 14:23:39;;;;;;;7.13;2.33;;;17.60;69.10;;;;;;5074131;28;20044;-71
2022/11/11 14:26:26;;;;;;;4.45;2.30;;;17.60;69.30;;;;;;5073639;28;20060;-72
2022/11/11 14:28:56;;;;;;;6.22;2.10;;;17.50;69.30;;;;;;5075824;28;20400;-72
2022/11/11 14:31:42;;;;;;;3.10;2.30;;;17.50;69.50;;;;;;5073264;28;20056;-72
2022/11/11 14:34:15;;;;;;;3.88;2.20;;;17.50;69.50;;;;;;5073892;28;20059;-72
2022/11/11 14:36:43;;;;;;;3.20;2.20;;;17.40;69.50;;;;;;5073395;28;20126;-72
2022/11/11 14:39:15;;;;;;;5.13;2.40;;;17.40;69.60;;;;;;5072873;28;20052;-72
2022/11/11 14:41:46;;;;;;;3.47;2.28;;;17.40;69.60;;;;;;5071945;28;20059;-72
2022/11/11 14:44:42;;;;;;;2.30;2.00;;;17.40;69.60;;;;;;5072926;28;20140;-73
2022/11/11 14:47:18;;;;;;;;;;;17.40;69.50;;;;;;5070617;28;20068;-73
2022/11/11 14:49:45;;;;;;;2.95;2.20;;;17.30;69.50;;;;;;5054735;28;19920;-73
2022/11/11 14:52:17;;;;;;;2.45;2.22;;;17.30;69.70;;;;;;5061358;28;20147;-73
2022/11/11 14:54:51;;;;;;;3.42;2.00;;;17.30;69.70;;;;;;5057264;28;20063;-72
2022/11/11 14:57:23;;;;;;;2.63;2.00;;;17.30;69.70;;;;;;5062715;28;20040;-73
2022/11/11 14:59:51;;;;;;;4.13;2.45;;;17.30;69.70;;;;;;5062670;28;20051;-72
2022/11/11 15:02:29;;;;;;;3.45;2.35;;;17.30;69.70;;;;;;5063479;28;20049;-73
2022/11/11 15:05:01;;;;;;;2.95;2.15;;;17.30;69.60;;;;;;5052481;28;20052;-73
2022/11/11 15:07:40;;;;;;;3.95;2.30;;;17.20;69.60;;;;;;5052520;28;20053;-72
2022/11/11 15:10:19;;;;;;;3.70;2.00;;;17.20;69.60;;;;;;5051543;28;20514;-73
2022/11/11 15:13:19;;;;;;;3.10;2.15;;;17.20;69.60;;;;;;5052516;28;20068;-71
2022/11/11 15:15:52;;;;;;;5.15;2.17;;;17.20;69.70;;;;;;5010290;28;20131;-72
2022/11/11 15:18:30;;;;;;;3.72;2.40;;;17.20;69.60;;;;;;5051511;28;20071;-72
2022/11/11 15:21:01;;;;;;;3.00;2.28;;;17.20;69.60;;;;;;5052242;28;20061;-73
2022/11/11 15:23:31;;;;;;;4.43;2.30;;;17.10;69.60;;;;;;5052817;28;20072;-72
2022/11/11 15:26:06;;;;;;;4.15;2.50;;;17.10;69.60;;;;;;5052733;28;20049;-72
2022/11/11 15:28:41;;;;;;;3.50;2.47;;;17.10;69.50;;;;;;5052982;28;20148;-72